createdAt,value
2017-10-13T00:02:16.484Z,18.25
2017-10-13T00:04:44.815Z,12.00
2017-10-13T00:07:12.357Z,12.73
2017-10-13T00:09:39.895Z,14.77
2017-10-13T00:12:07.484Z,12.00
2017-10-13T00:14:35.028Z,11.37
2017-10-13T00:17:02.564Z,11.73
2017-10-13T00:19:30.132Z,14.32
2017-10-13T00:21:57.670Z,16.47
2017-10-13T00:24:25.980Z,12.43
2017-10-13T00:26:53.535Z,13.63
2017-10-13T00:29:21.079Z,19.70
2017-10-13T00:31:48.622Z,12.80
2017-10-13T00:34:16.623Z,11.47
2017-10-13T00:36:44.159Z,10.73
2017-10-13T00:39:11.696Z,14.10
2017-10-13T00:41:39.283Z,13.97
2017-10-13T00:44:07.584Z,12.47
2017-10-13T00:46:35.128Z,13.90
2017-10-13T00:49:02.687Z,11.00
2017-10-13T00:51:30.228Z,11.20
2017-10-13T00:53:58.531Z,10.30
2017-10-13T00:56:26.639Z,11.25
2017-10-13T00:58:54.659Z,14.50
2017-10-13T01:01:22.216Z,11.80
2017-10-13T01:03:50.552Z,13.67
2017-10-13T01:06:18.089Z,11.90
2017-10-13T01:08:45.623Z,14.33
2017-10-13T01:11:15.391Z,13.10
2017-10-13T01:13:42.928Z,12.57
2017-10-13T01:16:10.463Z,15.50
2017-10-13T01:18:38.056Z,11.70
2017-10-13T01:21:05.584Z,14.25
2017-10-13T01:23:33.124Z,15.45
2017-10-13T01:26:00.696Z,20.93
2017-10-13T01:28:28.239Z,17.70
2017-10-13T01:30:56.543Z,15.43
2017-10-13T01:33:24.117Z,11.73
2017-10-13T01:35:51.643Z,12.27
2017-10-13T01:38:19.183Z,14.07
2017-10-13T01:40:46.766Z,16.97
2017-10-13T01:43:19.523Z,17.05
2017-10-13T01:51:47.084Z,14.67
2017-10-13T01:54:16.434Z,16.40
2017-10-13T01:56:43.976Z,14.97
2017-10-13T01:59:12.080Z,16.00
2017-10-13T02:01:40.388Z,14.23
2017-10-13T02:04:07.920Z,15.50
2017-10-13T02:06:36.252Z,17.37
2017-10-13T02:09:03.788Z,17.40
2017-10-13T02:11:31.327Z,16.03
2017-10-13T02:13:58.892Z,17.47
2017-10-13T02:16:26.431Z,16.80
2017-10-13T02:18:54.727Z,18.67
2017-10-13T02:21:22.336Z,17.48
2017-10-13T02:23:49.871Z,18.47
2017-10-13T02:26:17.411Z,16.63
2017-10-13T02:28:44.975Z,19.73
2017-10-13T02:31:14.202Z,17.50
2017-10-13T02:33:41.734Z,16.53
2017-10-13T02:36:09.300Z,18.40
2017-10-13T02:38:36.835Z,20.57
2017-10-13T02:41:04.393Z,23.33
2017-10-13T02:43:32.756Z,20.23
2017-10-13T02:46:01.063Z,17.53
2017-10-13T02:48:28.603Z,18.77
2017-10-13T02:50:56.932Z,18.87
2017-10-13T02:53:24.532Z,26.83
2017-10-13T02:55:52.067Z,20.00
2017-10-13T02:58:19.624Z,21.58
2017-10-13T03:00:47.302Z,25.70
2017-10-13T03:03:17.273Z,26.35
2017-10-13T03:05:44.905Z,20.50
2017-10-13T03:08:12.445Z,19.62
2017-10-13T03:10:39.983Z,20.17
2017-10-13T03:13:07.559Z,21.35
2017-10-13T03:15:35.099Z,18.90
2017-10-13T03:18:02.639Z,24.03
2017-10-13T03:20:30.964Z,25.10
2017-10-13T03:22:58.508Z,26.13
2017-10-13T03:25:26.048Z,17.40
2017-10-13T03:27:53.647Z,18.87
2017-10-13T03:30:21.192Z,16.90
2017-10-13T03:32:48.735Z,17.43
2017-10-13T03:35:17.255Z,20.30
2017-10-13T03:37:45.550Z,19.77
2017-10-13T03:40:14.610Z,22.60
2017-10-13T03:42:42.167Z,17.67
2017-10-13T03:45:09.699Z,23.70
2017-10-13T03:47:37.240Z,21.77
2017-10-13T03:50:04.824Z,17.70
2017-10-13T03:52:32.371Z,18.13
2017-10-13T03:54:59.911Z,20.20
2017-10-13T03:57:27.480Z,20.80
2017-10-13T03:59:55.775Z,24.47
2017-10-13T04:02:23.903Z,17.80
2017-10-13T04:04:51.463Z,21.92
2017-10-13T04:07:19.767Z,18.33
2017-10-13T04:09:48.069Z,17.10
2017-10-13T04:12:16.863Z,23.80
2017-10-13T04:14:44.407Z,26.10
2017-10-13T04:17:11.956Z,25.73
2017-10-13T04:19:39.515Z,17.65
2017-10-13T04:22:07.819Z,17.17
2017-10-13T04:24:35.352Z,20.73
2017-10-13T04:27:02.919Z,26.33
2017-10-13T04:29:30.695Z,18.85
2017-10-13T04:31:58.264Z,20.30
2017-10-13T04:34:25.927Z,17.42
2017-10-13T04:36:53.487Z,18.33
2017-10-13T04:39:21.020Z,21.23
2017-10-13T04:41:48.664Z,18.73
2017-10-13T04:44:16.411Z,28.30
2017-10-13T04:46:43.955Z,18.10
2017-10-13T04:49:11.519Z,22.73
2017-10-13T04:51:39.055Z,19.20
2017-10-13T04:54:06.595Z,19.90
2017-10-13T04:56:34.179Z,32.70
2017-10-13T04:59:01.719Z,20.20
2017-10-13T05:01:29.256Z,24.65
2017-10-13T05:03:57.126Z,26.47
2017-10-13T05:06:24.663Z,28.12
2017-10-13T05:08:52.970Z,20.00
2017-10-13T05:11:20.532Z,21.62
2017-10-13T05:13:48.075Z,20.60
2017-10-13T05:16:16.503Z,21.48
2017-10-13T05:18:44.734Z,28.67
2017-10-13T05:21:12.268Z,19.03
2017-10-13T05:23:39.812Z,21.07
2017-10-13T05:26:07.375Z,21.13
2017-10-13T05:28:34.913Z,27.20
2017-10-13T05:31:02.460Z,19.30
2017-10-13T05:33:30.033Z,20.37
2017-10-13T05:35:57.575Z,20.40
2017-10-13T05:38:25.111Z,17.90
2017-10-13T05:40:52.700Z,17.70
2017-10-13T05:43:20.243Z,26.17
2017-10-13T05:45:47.783Z,16.90
2017-10-13T05:48:16.327Z,18.42
2017-10-13T05:50:43.865Z,23.83
2017-10-13T05:53:11.398Z,20.53
2017-10-13T05:55:38.979Z,17.63
2017-10-13T05:58:06.511Z,22.87
2017-10-13T06:00:34.059Z,18.13
2017-10-13T06:03:01.672Z,17.17
2017-10-13T06:05:29.640Z,20.93
2017-10-13T06:07:57.171Z,17.57
2017-10-13T06:10:24.731Z,16.37
2017-10-13T06:12:52.273Z,18.03
2017-10-13T06:15:19.810Z,16.05
2017-10-13T06:17:47.396Z,16.57
2017-10-13T06:20:17.232Z,26.48
2017-10-13T06:22:44.762Z,22.20
2017-10-13T06:25:14.042Z,22.53
2017-10-13T06:27:42.348Z,23.17
2017-10-13T06:30:09.880Z,18.57
2017-10-13T06:32:38.211Z,18.95
2017-10-13T06:35:05.753Z,19.53
2017-10-13T06:37:33.292Z,33.78
2017-10-13T06:40:01.630Z,25.37
2017-10-13T06:42:29.162Z,19.20
2017-10-13T06:44:56.709Z,20.07
2017-10-13T06:47:24.295Z,15.10
2017-10-13T06:49:51.835Z,17.97
2017-10-13T06:52:19.374Z,19.73
2017-10-13T06:54:46.940Z,16.17
2017-10-13T06:57:25.718Z,14.73
2017-10-13T07:04:30.703Z,18.87
2017-10-13T07:06:59.500Z,22.20
2017-10-13T07:09:27.809Z,19.67
2017-10-13T07:11:55.375Z,19.13
2017-10-13T07:14:23.673Z,18.60
2017-10-13T07:16:51.263Z,17.97
2017-10-13T07:19:18.876Z,15.33
2017-10-13T07:21:46.406Z,19.27
2017-10-13T07:24:15.479Z,16.37
2017-10-13T07:26:43.855Z,16.47
2017-10-13T07:29:11.392Z,14.43
2017-10-13T07:31:38.924Z,24.03
2017-10-13T07:34:06.478Z,30.80
2017-10-13T07:36:35.152Z,14.43
2017-10-13T07:39:02.691Z,13.63
2017-10-13T07:41:31.014Z,16.27
2017-10-13T07:43:58.543Z,9.60
2017-10-13T07:46:26.076Z,15.23
2017-10-13T07:48:54.501Z,9.53
2017-10-13T07:51:22.365Z,13.00
2017-10-13T07:53:49.913Z,11.40
2017-10-13T07:56:17.472Z,11.40
2017-10-13T07:58:45.007Z,10.77
2017-10-13T08:01:12.544Z,13.20
2017-10-13T08:03:40.126Z,8.83
2017-10-13T08:06:07.655Z,11.23
2017-10-13T08:08:35.448Z,8.80
2017-10-13T08:11:03.044Z,13.73
2017-10-13T08:13:30.692Z,9.43
2017-10-13T08:15:58.304Z,11.10
2017-10-13T08:18:25.869Z,9.23
2017-10-13T08:20:53.448Z,8.20
2017-10-13T08:23:21.019Z,9.80
2017-10-13T08:25:48.649Z,7.45
2017-10-13T08:28:16.531Z,8.23
2017-10-13T08:30:44.195Z,6.10
2017-10-13T08:33:11.927Z,6.93
2017-10-13T08:35:39.497Z,8.40
2017-10-13T08:38:07.039Z,8.30
2017-10-13T08:40:34.759Z,5.00
2017-10-13T08:43:03.051Z,7.27
2017-10-13T08:45:30.579Z,4.95
2017-10-13T08:47:58.135Z,13.20
2017-10-13T08:50:25.777Z,6.10
2017-10-13T08:52:53.336Z,6.53
2017-10-13T08:55:20.927Z,12.80
2017-10-13T08:57:49.233Z,5.15
2017-10-13T09:00:16.876Z,3.45
2017-10-13T09:02:44.434Z,9.80
2017-10-13T09:05:14.391Z,6.30
2017-10-13T09:07:41.923Z,3.07
2017-10-13T09:10:09.733Z,3.20
2017-10-13T09:12:37.268Z,6.60
2017-10-13T09:15:04.787Z,3.30
2017-10-13T09:17:32.380Z,3.50
2017-10-13T09:19:59.906Z,2.83
2017-10-13T09:22:33.024Z,9.13
2017-10-13T09:25:00.552Z,2.42
2017-10-13T09:27:28.855Z,2.60
2017-10-13T09:29:56.399Z,5.37
2017-10-13T09:32:24.694Z,3.20
2017-10-13T09:34:52.239Z,3.13
2017-10-13T09:37:20.587Z,2.58
2017-10-13T09:39:48.130Z,2.93
2017-10-13T09:42:16.411Z,8.63
2017-10-13T09:44:43.972Z,9.83
2017-10-13T09:47:11.499Z,7.35
2017-10-13T09:49:39.023Z,3.50
2017-10-13T09:52:06.583Z,3.70
2017-10-13T09:54:34.883Z,2.40
2017-10-13T09:57:02.414Z,3.28
2017-10-13T09:59:30.008Z,4.03
2017-10-13T10:01:57.535Z,3.80
2017-10-13T10:04:25.059Z,2.90
2017-10-13T10:06:52.611Z,3.10
2017-10-13T10:09:20.139Z,3.65
2017-10-13T10:11:48.064Z,4.00
2017-10-13T10:14:16.469Z,8.07
2017-10-13T10:16:44.763Z,3.73
2017-10-13T10:19:12.295Z,7.43
2017-10-13T10:21:39.884Z,5.63
2017-10-13T10:24:07.421Z,3.67
2017-10-13T10:26:34.946Z,6.67
2017-10-13T10:29:02.507Z,3.20
2017-10-13T10:31:30.054Z,6.23
2017-10-13T10:33:57.587Z,5.97
2017-10-13T10:36:25.135Z,3.63
2017-10-13T10:38:53.427Z,7.70
2017-10-13T10:41:20.955Z,5.95
2017-10-13T10:43:49.381Z,4.70
2017-10-13T10:46:16.907Z,3.83
2017-10-13T10:48:44.443Z,2.57
2017-10-13T10:51:11.996Z,3.20
2017-10-13T10:53:39.528Z,3.43
2017-10-13T10:56:07.063Z,5.60
2017-10-13T10:58:34.623Z,8.50
2017-10-13T11:01:02.152Z,2.50
2017-10-13T11:03:30.469Z,4.50
2017-10-13T11:05:58.064Z,2.70
2017-10-13T11:08:25.596Z,4.07
2017-10-13T11:10:53.126Z,9.20
2017-10-13T11:13:20.827Z,2.30
2017-10-13T11:15:48.356Z,4.77
2017-10-13T11:18:16.379Z,3.30
2017-10-13T11:20:43.936Z,4.10
2017-10-13T11:23:11.461Z,3.83
2017-10-13T11:25:38.988Z,2.27
2017-10-13T11:28:06.572Z,14.97
2017-10-13T11:30:34.099Z,3.20
2017-10-13T11:33:02.440Z,2.50
2017-10-13T11:35:30.061Z,2.50
2017-10-13T11:37:57.638Z,3.10
2017-10-13T11:40:25.183Z,4.40
2017-10-13T11:42:52.756Z,6.33
2017-10-13T11:45:20.295Z,3.90
2017-10-13T11:47:47.860Z,6.43
2017-10-13T11:50:16.585Z,2.40
2017-10-13T11:52:44.135Z,2.50
2017-10-13T11:55:11.680Z,4.03
2017-10-13T11:57:39.296Z,2.30
2017-10-13T12:00:06.898Z,3.03
2017-10-13T12:02:34.457Z,2.67
2017-10-13T12:05:02.030Z,3.17
2017-10-13T12:07:29.590Z,6.37
2017-10-13T12:09:57.193Z,2.77
2017-10-13T12:12:24.785Z,7.87
2017-10-13T12:14:52.556Z,6.33
2017-10-13T12:17:20.113Z,2.00
2017-10-13T12:19:48.462Z,2.73
2017-10-13T12:22:16.428Z,3.95
2017-10-13T12:24:43.995Z,8.13
2017-10-13T12:27:11.579Z,2.80
2017-10-13T12:29:39.148Z,8.13
2017-10-13T12:32:06.699Z,2.30
2017-10-13T12:34:35.067Z,3.13
2017-10-13T12:37:03.371Z,2.40
2017-10-13T12:39:31.004Z,4.70
2017-10-13T12:41:58.583Z,3.33
2017-10-13T12:44:26.124Z,4.05
2017-10-13T12:46:54.431Z,3.80
2017-10-13T12:49:21.997Z,2.90
2017-10-13T12:51:49.561Z,3.77
2017-10-13T12:54:17.112Z,5.67
2017-10-13T12:56:44.752Z,4.13
2017-10-13T12:59:12.297Z,2.90
2017-10-13T13:01:39.856Z,2.63
2017-10-13T13:04:08.215Z,3.83
2017-10-13T13:06:35.771Z,3.30
2017-10-13T13:09:04.029Z,2.63
2017-10-13T13:11:31.602Z,4.70
2017-10-13T13:13:59.145Z,9.67
2017-10-13T13:16:27.127Z,4.67
2017-10-13T13:18:55.000Z,5.70
2017-10-13T13:21:22.548Z,6.25
2017-10-13T13:23:50.075Z,3.73
2017-10-13T13:26:17.894Z,2.97
2017-10-13T13:28:45.460Z,11.93
2017-10-13T13:31:15.333Z,6.22
2017-10-13T13:33:42.895Z,3.73
2017-10-13T13:36:11.267Z,3.03
2017-10-13T13:38:39.574Z,6.87
2017-10-13T13:41:07.143Z,3.00
2017-10-13T13:43:34.683Z,6.90
2017-10-13T13:46:02.226Z,4.33
2017-10-13T13:48:29.800Z,5.35
2017-10-13T13:50:59.992Z,3.47
2017-10-13T13:53:27.529Z,18.40
2017-10-13T13:55:55.865Z,3.17
2017-10-13T13:58:23.416Z,6.93
2017-10-13T14:00:51.017Z,5.70
2017-10-13T14:03:18.651Z,3.20
2017-10-13T14:05:46.250Z,7.60
2017-10-13T14:08:15.536Z,6.30
2017-10-13T14:10:43.114Z,2.80
2017-10-13T14:13:11.433Z,2.80
2017-10-13T14:15:39.736Z,3.97
2017-10-13T14:18:07.469Z,4.10
2017-10-13T14:20:34.996Z,6.87
2017-10-13T14:23:02.853Z,5.32
2017-10-13T14:25:33.101Z,2.78
2017-10-13T14:28:00.651Z,3.63
2017-10-13T14:30:28.330Z,4.10
2017-10-13T14:32:55.901Z,6.30
2017-10-13T14:35:23.486Z,4.80
2017-10-13T14:37:51.020Z,10.00
2017-10-13T14:40:18.594Z,13.70
2017-10-13T14:42:46.119Z,10.30
2017-10-13T14:45:24.960Z,7.63
2017-10-13T14:48:23.346Z,3.23
2017-10-13T14:50:50.960Z,4.67
2017-10-13T14:53:18.483Z,6.47
2017-10-13T14:55:46.032Z,5.07
2017-10-13T14:58:15.535Z,2.95
2017-10-13T15:00:43.059Z,3.67
2017-10-13T15:03:10.591Z,4.10
2017-10-13T15:05:38.180Z,4.53
2017-10-13T15:08:06.479Z,3.83
2017-10-13T15:10:34.007Z,3.73
2017-10-13T15:13:02.331Z,3.58
2017-10-13T15:15:29.854Z,6.13
2017-10-13T15:17:58.147Z,4.57
2017-10-13T15:20:25.839Z,3.70
2017-10-13T15:22:53.371Z,5.37
2017-10-13T15:25:26.683Z,3.67
2017-10-13T15:27:59.804Z,6.70
2017-10-13T15:30:33.056Z,3.40
2017-10-13T15:33:06.275Z,5.53
2017-10-13T15:35:39.393Z,3.77
2017-10-13T15:38:12.480Z,4.73
2017-10-13T15:40:45.720Z,6.63
2017-10-13T15:43:31.608Z,6.10
2017-10-13T15:49:19.535Z,3.80
2017-10-13T15:51:53.446Z,3.23
2017-10-13T15:54:21.243Z,8.00
2017-10-13T15:56:49.735Z,6.23
2017-10-13T15:59:17.400Z,7.37
2017-10-13T16:01:46.056Z,4.27
2017-10-13T16:04:24.823Z,4.80
2017-10-13T16:08:16.686Z,3.77
2017-10-13T16:10:44.290Z,5.77
2017-10-13T16:13:12.005Z,4.47
2017-10-13T16:15:39.855Z,5.90
2017-10-13T16:18:07.472Z,3.87
2017-10-13T16:20:35.623Z,8.13
2017-10-13T16:23:04.159Z,5.43
2017-10-13T16:25:31.772Z,8.30
2017-10-13T16:28:00.096Z,10.57
2017-10-13T16:30:27.660Z,11.20
2017-10-13T16:32:55.188Z,9.50
2017-10-13T16:35:23.556Z,12.17
2017-10-13T16:37:51.895Z,13.23
2017-10-13T16:40:19.424Z,13.93
2017-10-13T16:42:46.959Z,10.80
2017-10-13T16:45:27.000Z,11.12
2017-10-13T16:54:10.319Z,7.47
2017-10-13T16:56:37.848Z,7.33
2017-10-13T16:59:05.381Z,7.95
2017-10-13T17:01:33.732Z,7.70
2017-10-13T17:04:01.261Z,13.73
2017-10-13T17:06:29.559Z,11.27
2017-10-13T17:08:57.115Z,17.20
2017-10-13T17:11:24.828Z,15.05
2017-10-13T17:13:52.383Z,19.13
2017-10-13T17:16:20.289Z,17.00
2017-10-13T17:18:50.682Z,12.17
2017-10-13T17:21:18.715Z,22.13
2017-10-13T17:23:46.336Z,13.63
2017-10-13T17:26:25.236Z,15.02
2017-10-13T17:33:46.238Z,17.80
2017-10-13T17:36:16.308Z,10.75
2017-10-13T17:38:43.862Z,14.03
2017-10-13T17:41:12.211Z,19.53
2017-10-13T17:43:39.899Z,13.10
2017-10-13T17:46:07.597Z,21.73
2017-10-13T17:48:35.271Z,41.80
2017-10-13T17:51:02.864Z,44.57
2017-10-13T17:53:30.439Z,40.90
2017-10-13T17:55:58.781Z,49.77
2017-10-13T17:58:26.438Z,38.40
2017-10-13T18:00:54.792Z,35.23
2017-10-13T18:03:22.485Z,30.70
2017-10-13T18:05:50.083Z,30.87
2017-10-13T18:08:17.690Z,21.37
2017-10-13T18:10:50.092Z,18.07
2017-10-13T18:13:20.190Z,20.48
2017-10-13T18:15:47.783Z,20.67
2017-10-13T18:18:16.668Z,15.75
2017-10-13T18:20:44.205Z,22.13
2017-10-13T18:23:14.368Z,33.10
2017-10-13T18:25:42.749Z,19.50
2017-10-13T18:28:11.168Z,22.83
2017-10-13T18:30:38.713Z,23.87
2017-10-13T18:33:06.317Z,22.93
2017-10-13T18:35:33.856Z,22.83
2017-10-13T18:38:01.520Z,20.95
2017-10-13T18:40:29.280Z,28.90
2017-10-13T18:42:56.873Z,23.80
2017-10-13T18:45:24.428Z,22.07
2017-10-13T18:47:52.046Z,16.90
2017-10-13T18:50:19.581Z,19.20
2017-10-13T18:52:47.119Z,18.10
2017-10-13T18:55:16.410Z,20.80
2017-10-13T18:57:43.956Z,23.73
2017-10-13T19:00:11.489Z,31.55
2017-10-13T19:02:39.092Z,38.00
2017-10-13T19:05:06.639Z,49.40
2017-10-13T19:07:34.175Z,38.60
2017-10-13T19:10:01.778Z,31.30
2017-10-13T19:12:29.320Z,33.17
2017-10-13T19:14:56.855Z,20.50
2017-10-13T19:17:24.527Z,15.68
2017-10-13T19:19:52.066Z,16.20
2017-10-13T19:22:19.608Z,23.90
2017-10-13T19:24:47.316Z,21.23
2017-10-13T19:27:16.744Z,23.70
2017-10-13T19:29:44.288Z,30.20
2017-10-13T19:32:11.885Z,16.23
2017-10-13T19:34:39.436Z,18.97
2017-10-13T19:37:06.980Z,32.47
2017-10-13T19:39:34.539Z,16.05
2017-10-13T19:42:02.071Z,13.90
2017-10-13T19:44:29.603Z,19.23
2017-10-13T19:46:57.241Z,18.33
2017-10-13T19:49:24.783Z,22.77
2017-10-13T19:51:52.323Z,21.87
2017-10-13T19:54:19.926Z,23.67
2017-10-13T19:56:47.467Z,24.00
2017-10-13T19:59:17.233Z,24.60
2017-10-13T20:01:44.801Z,48.30
2017-10-13T20:04:12.335Z,47.30
2017-10-13T20:06:39.879Z,33.90
2017-10-13T20:09:07.502Z,32.63
2017-10-13T20:11:35.077Z,26.03
2017-10-13T20:14:02.612Z,21.50
2017-10-13T20:16:30.273Z,24.60
2017-10-13T20:18:57.812Z,21.50
2017-10-13T20:21:25.361Z,24.00
2017-10-13T20:23:52.929Z,29.73
2017-10-13T20:26:21.378Z,16.34
2017-10-13T20:28:49.721Z,30.80
2017-10-13T20:31:17.324Z,21.13
2017-10-13T20:33:45.774Z,33.17
2017-10-13T20:36:24.459Z,22.13
2017-10-13T20:42:10.300Z,20.70
2017-10-13T20:44:37.843Z,19.23
2017-10-13T20:47:05.372Z,15.60
2017-10-13T20:49:32.961Z,18.73
2017-10-13T20:52:00.542Z,20.55
2017-10-13T20:54:28.075Z,22.93
2017-10-13T20:56:55.655Z,17.10
2017-10-13T20:59:23.191Z,16.63
2017-10-13T21:01:50.730Z,17.30
2017-10-13T21:04:18.485Z,25.93
2017-10-13T21:06:46.031Z,24.20
2017-10-13T21:09:15.360Z,27.37
2017-10-13T21:11:43.451Z,22.13
2017-10-13T21:14:10.984Z,27.70
2017-10-13T21:16:38.527Z,18.87
2017-10-13T21:19:06.879Z,23.30
2017-10-13T21:21:34.419Z,26.50
2017-10-13T21:24:01.960Z,21.30
2017-10-13T21:26:29.620Z,15.60
2017-10-13T21:28:57.261Z,22.30
2017-10-13T21:31:24.800Z,19.77
2017-10-13T21:33:52.635Z,21.57
2017-10-13T21:36:20.228Z,22.67
2017-10-13T21:38:48.532Z,26.23
2017-10-13T21:41:16.463Z,20.37
2017-10-13T21:43:43.992Z,20.23
2017-10-13T21:46:11.533Z,20.37
2017-10-13T21:48:39.875Z,18.53
2017-10-13T21:51:07.416Z,20.83
2017-10-13T21:53:34.951Z,24.70
2017-10-13T21:56:02.515Z,15.87
2017-10-13T21:58:30.359Z,20.47
2017-10-13T22:00:57.909Z,21.07
2017-10-13T22:03:25.531Z,19.52
2017-10-13T22:05:53.848Z,21.73
2017-10-13T22:08:21.400Z,21.30
2017-10-13T22:10:48.967Z,25.37
2017-10-13T22:13:16.503Z,22.60
2017-10-13T22:15:44.050Z,26.77
2017-10-13T22:18:11.615Z,20.62
2017-10-13T22:20:39.150Z,17.40
2017-10-13T22:23:06.691Z,16.27
2017-10-13T22:25:34.279Z,23.83
2017-10-13T22:28:03.076Z,16.73
2017-10-13T22:30:30.626Z,15.13
2017-10-13T22:32:58.961Z,14.50
2017-10-13T22:35:26.535Z,12.70
2017-10-13T22:37:54.075Z,16.80
2017-10-13T22:40:21.643Z,22.23
2017-10-13T22:42:49.175Z,13.53
2017-10-13T22:45:16.711Z,17.37
2017-10-13T22:47:44.300Z,15.00
2017-10-13T22:50:11.832Z,12.90
2017-10-13T22:52:40.136Z,15.30
2017-10-13T22:55:07.701Z,17.17
2017-10-13T22:57:35.235Z,11.60
2017-10-13T23:00:02.780Z,15.17
2017-10-13T23:02:30.335Z,17.42
2017-10-13T23:04:58.667Z,13.40
2017-10-13T23:07:26.207Z,15.10
2017-10-13T23:09:53.796Z,11.93
2017-10-13T23:12:21.337Z,11.57
2017-10-13T23:14:48.880Z,25.57
2017-10-13T23:17:16.519Z,14.33
2017-10-13T23:19:44.051Z,13.07
2017-10-13T23:22:11.577Z,16.67
2017-10-13T23:24:39.144Z,11.97
2017-10-13T23:27:06.675Z,13.53
2017-10-13T23:29:34.443Z,10.50
2017-10-13T23:32:02.297Z,17.10
2017-10-13T23:34:30.601Z,11.57
2017-10-13T23:36:58.132Z,11.23
2017-10-13T23:39:30.128Z,25.00
2017-10-13T23:41:57.659Z,15.57
2017-10-13T23:44:25.195Z,11.40
2017-10-13T23:46:52.756Z,14.23
2017-10-13T23:49:20.514Z,14.15
2017-10-13T23:51:48.056Z,17.20
2017-10-13T23:54:16.532Z,20.60
2017-10-13T23:56:44.063Z,11.37
2017-10-13T23:59:11.591Z,10.20
